Time;durP1;ratioP1;P1;durP2;ratioP2;P2;SDS_P1;SDS_P2;PMS_P1;PMS_P2;Temp;Humidity;BMP_temperature;BMP_pressure;BME280_temperature;BME280_humidity;BME280_pressure;Samples;Min_cycle;Max_cycle;Signal;HPM_P1;HPM_P2
2022/03/05 00:02:06;;;;;;;17.08;9.20;;;0.50;99.90;;;;;;4986566;28;20046;-72
2022/03/05 00:04:32;;;;;;;17.55;10.05;;;0.50;99.90;;;;;;4985416;28;20108;-72
2022/03/05 00:06:57;;;;;;;16.88;10.15;;;0.50;99.90;;;;;;4986418;28;20078;-72
2022/03/05 00:09:23;;;;;;;15.98;10.25;;;0.50;99.90;;;;;;4982868;28;20660;-73
2022/03/05 00:11:49;;;;;;;16.42;10.27;;;0.50;99.90;;;;;;4984903;28;20046;-73
2022/03/05 00:14:15;;;;;;;16.83;8.65;;;0.50;99.90;;;;;;4999864;28;20112;-72
2022/03/05 00:16:41;;;;;;;17.98;9.52;;;0.40;99.90;;;;;;4983547;28;20058;-73
2022/03/05 00:19:06;;;;;;;16.73;9.90;;;0.40;99.90;;;;;;4981924;28;20066;-74
2022/03/05 00:21:33;;;;;;;15.85;9.45;;;0.40;99.90;;;;;;4982086;28;20046;-72
2022/03/05 00:23:58;;;;;;;18.25;10.00;;;0.30;99.90;;;;;;4984232;28;20038;-73
2022/03/05 00:26:25;;;;;;;18.48;10.48;;;0.30;99.90;;;;;;4987109;28;20045;-72
2022/03/05 00:28:51;;;;;;;18.75;10.23;;;0.30;99.90;;;;;;4984802;28;20103;-72
2022/03/05 00:31:17;;;;;;;18.42;10.27;;;0.30;99.90;;;;;;4985594;28;20050;-73
2022/03/05 00:33:42;;;;;;;20.23;10.27;;;0.20;99.90;;;;;;4986808;28;20517;-72
2022/03/05 00:36:08;;;;;;;17.80;10.80;;;0.20;99.90;;;;;;4985982;28;20495;-72
2022/03/05 00:38:34;;;;;;;19.17;9.98;;;0.20;99.90;;;;;;4988716;28;20575;-73
2022/03/05 00:40:59;;;;;;;19.30;10.38;;;0.20;99.90;;;;;;4984870;28;20042;-73
2022/03/05 00:43:25;;;;;;;23.25;11.07;;;0.10;99.90;;;;;;4989398;28;20041;-72
2022/03/05 00:45:51;;;;;;;19.50;10.52;;;0.10;99.90;;;;;;4982867;28;20414;-72
2022/03/05 00:48:16;;;;;;;19.95;10.95;;;0.10;99.90;;;;;;4987022;28;20038;-72
2022/03/05 00:50:42;;;;;;;19.80;10.40;;;0.00;99.90;;;;;;4979386;28;20042;-73
2022/03/05 00:53:11;;;;;;;18.65;10.38;;;-0.10;99.90;;;;;;4980501;28;20046;-73
2022/03/05 00:55:36;;;;;;;18.50;11.00;;;-0.10;99.90;;;;;;4984476;28;20133;-73
2022/03/05 00:58:03;;;;;;;17.73;10.90;;;-0.10;99.90;;;;;;4985068;28;20121;-72
2022/03/05 01:00:28;;;;;;;21.27;10.63;;;-0.20;99.90;;;;;;4980452;28;20050;-72
2022/03/05 01:02:54;;;;;;;18.58;10.73;;;-0.30;99.90;;;;;;4981801;28;20052;-73
2022/03/05 01:05:20;;;;;;;19.60;10.55;;;-0.30;99.90;;;;;;4983673;28;20054;-73
2022/03/05 01:07:46;;;;;;;21.02;10.55;;;-0.30;99.90;;;;;;4996389;28;20050;-73
2022/03/05 01:10:11;;;;;;;16.70;9.95;;;-0.30;99.90;;;;;;5000337;28;20065;-73
2022/03/05 01:12:37;;;;;;;19.33;10.52;;;-0.40;99.90;;;;;;5005757;28;20106;-73
2022/03/05 01:15:04;;;;;;;23.25;11.73;;;-0.40;99.90;;;;;;5003647;28;20064;-73
2022/03/05 01:17:30;;;;;;;20.70;10.75;;;-0.40;99.90;;;;;;4987147;28;20053;-73
2022/03/05 01:19:55;;;;;;;19.23;10.82;;;-0.40;99.90;;;;;;4990708;28;20058;-73
2022/03/05 01:22:21;;;;;;;20.55;11.48;;;-0.40;99.90;;;;;;5006721;28;20578;-72
2022/03/05 01:24:47;;;;;;;20.08;11.18;;;-0.50;99.90;;;;;;4988225;28;20085;-73
2022/03/05 01:27:12;;;;;;;23.48;11.18;;;-0.50;99.90;;;;;;4984792;28;20076;-73
2022/03/05 01:29:38;;;;;;;20.88;10.88;;;-0.50;99.90;;;;;;5008412;28;20044;-73
2022/03/05 01:32:04;;;;;;;19.35;10.43;;;-0.60;99.90;;;;;;4985266;28;20061;-72
2022/03/05 01:34:30;;;;;;;18.38;10.68;;;-0.60;99.90;;;;;;4984258;28;20129;-73
2022/03/05 01:36:55;;;;;;;21.33;11.18;;;-0.60;99.90;;;;;;4997291;28;20138;-72
2022/03/05 01:39:21;;;;;;;19.30;11.00;;;-0.70;99.90;;;;;;4978711;28;20061;-72
2022/03/05 01:41:48;;;;;;;20.40;11.50;;;-0.70;99.90;;;;;;4986715;28;20053;-73
2022/03/05 01:44:14;;;;;;;21.85;11.45;;;-0.70;99.90;;;;;;4987859;28;20041;-73
2022/03/05 01:46:40;;;;;;;21.67;11.90;;;-0.80;99.90;;;;;;4988568;28;20073;-72
2022/03/05 01:49:11;;;;;;;18.50;10.68;;;-0.80;99.90;;;;;;4989841;28;20161;-72
2022/03/05 01:51:38;;;;;;;19.33;11.38;;;-0.80;99.90;;;;;;4988191;28;20740;-72
2022/03/05 01:54:04;;;;;;;21.17;11.30;;;-0.80;99.90;;;;;;4982727;28;20081;-72
2022/03/05 01:56:30;;;;;;;20.40;11.70;;;-0.80;99.90;;;;;;4988317;28;20077;-73
2022/03/05 01:58:57;;;;;;;19.05;10.23;;;-0.80;99.90;;;;;;4982851;28;20046;-73
2022/03/05 02:01:24;;;;;;;20.20;10.95;;;-0.80;99.90;;;;;;4984753;28;20046;-73
2022/03/05 02:03:51;;;;;;;18.52;10.30;;;-0.80;99.90;;;;;;4988729;28;20041;-73
2022/03/05 02:06:17;;;;;;;19.05;10.77;;;-0.80;99.90;;;;;;4985970;28;20052;-72
2022/03/05 02:08:43;;;;;;;18.45;10.50;;;-0.90;99.90;;;;;;4986672;28;20494;-72
2022/03/05 02:11:08;;;;;;;20.70;10.75;;;-0.90;99.90;;;;;;4981413;28;20054;-72
2022/03/05 02:13:36;;;;;;;19.20;11.27;;;-0.90;99.90;;;;;;4984625;28;20046;-73
2022/03/05 02:16:02;;;;;;;20.23;10.88;;;-0.90;99.90;;;;;;4984141;28;20050;-72
2022/03/05 02:18:28;;;;;;;21.65;10.75;;;-1.00;99.90;;;;;;4986786;28;20072;-72
2022/03/05 02:20:55;;;;;;;19.67;11.23;;;-1.00;99.90;;;;;;4984237;28;20735;-71
2022/03/05 02:23:20;;;;;;;19.63;11.05;;;-1.00;99.90;;;;;;4985565;28;20057;-72
2022/03/05 02:26:02;;;;;;;20.98;10.27;;;-1.10;99.90;;;;;;4985752;28;20046;-71
2022/03/05 02:28:30;;;;;;;19.77;10.63;;;-1.00;99.90;;;;;;4987388;28;20046;-71
2022/03/05 02:30:56;;;;;;;20.60;11.50;;;-1.10;99.90;;;;;;4986209;28;20510;-72
2022/03/05 02:33:22;;;;;;;20.92;11.07;;;-1.10;99.90;;;;;;5005726;28;20592;-72
2022/03/05 02:35:48;;;;;;;23.48;11.85;;;-1.20;99.90;;;;;;4983899;28;20050;-72
2022/03/05 02:38:19;;;;;;;22.60;11.88;;;-1.10;99.90;;;;;;4984340;28;20087;-72
2022/03/05 02:40:46;;;;;;;21.90;11.20;;;-1.20;99.90;;;;;;4989068;28;20178;-72
2022/03/05 02:43:13;;;;;;;19.92;11.77;;;-1.20;99.90;;;;;;4987676;28;20061;-72
2022/03/05 02:45:40;;;;;;;17.55;10.25;;;-1.20;99.90;;;;;;4986240;28;20050;-72
2022/03/05 02:48:09;;;;;;;21.08;10.70;;;-1.20;99.90;;;;;;4987615;28;20046;-72
2022/03/05 02:50:35;;;;;;;21.88;10.13;;;-1.20;99.90;;;;;;4983160;28;20092;-72
2022/03/05 02:53:00;;;;;;;18.15;10.18;;;-1.20;99.90;;;;;;4983855;28;20069;-71
2022/03/05 02:55:26;;;;;;;19.17;10.52;;;-1.30;99.90;;;;;;4982249;28;21051;-71
2022/03/05 02:57:52;;;;;;;19.10;10.63;;;-1.30;99.90;;;;;;4981461;28;20117;-72
2022/03/05 03:00:18;;;;;;;21.35;10.63;;;-1.30;99.90;;;;;;4985045;28;20047;-72
2022/03/05 03:02:45;;;;;;;17.58;9.95;;;-1.30;99.90;;;;;;4980034;28;20057;-71
2022/03/05 03:05:14;;;;;;;18.83;10.93;;;-1.40;99.90;;;;;;4988084;28;20054;-72
2022/03/05 03:07:40;;;;;;;19.40;10.23;;;-1.30;99.90;;;;;;4990442;28;20038;-72
2022/03/05 03:10:07;;;;;;;17.33;10.23;;;-1.40;99.90;;;;;;5003883;28;20061;-71
2022/03/05 03:12:33;;;;;;;17.42;10.30;;;-1.40;99.90;;;;;;5004838;28;20073;-72
2022/03/05 03:14:58;;;;;;;17.55;9.27;;;-1.50;99.90;;;;;;5001393;28;20070;-72
2022/03/05 03:17:24;;;;;;;15.45;9.15;;;-1.50;99.90;;;;;;4984856;28;20045;-72
2022/03/05 03:19:50;;;;;;;20.95;9.50;;;-1.50;99.90;;;;;;4980397;28;20042;-72
2022/03/05 03:22:16;;;;;;;18.13;10.48;;;-1.50;99.90;;;;;;4990932;28;20143;-72
2022/03/05 03:24:42;;;;;;;17.13;9.27;;;-1.50;99.90;;;;;;4990217;28;20100;-72
2022/03/05 03:27:08;;;;;;;18.58;9.38;;;-1.50;99.90;;;;;;4987502;28;20091;-72
2022/03/05 03:29:34;;;;;;;19.73;9.60;;;-1.50;99.90;;;;;;4985402;28;20031;-72
2022/03/05 03:32:00;;;;;;;18.58;9.40;;;-1.50;99.90;;;;;;5004832;28;20056;-72
2022/03/05 03:34:26;;;;;;;18.67;9.75;;;-1.50;99.90;;;;;;4987482;28;20042;-72
2022/03/05 03:36:51;;;;;;;17.55;9.77;;;-1.50;99.90;;;;;;4982846;28;20509;-72
2022/03/05 03:39:17;;;;;;;21.60;10.00;;;-1.50;99.90;;;;;;4985300;28;20066;-72
2022/03/05 03:41:43;;;;;;;18.38;9.20;;;-1.50;99.90;;;;;;4986211;28;20499;-72
2022/03/05 03:44:09;;;;;;;16.65;8.98;;;-1.40;99.90;;;;;;4982817;28;20054;-72
2022/03/05 03:46:34;;;;;;;16.15;8.55;;;-1.40;99.90;;;;;;4984118;28;20540;-72
2022/03/05 03:49:00;;;;;;;15.48;8.65;;;-1.50;99.90;;;;;;4980284;28;20050;-72
2022/03/05 03:51:26;;;;;;;18.70;8.80;;;-1.50;99.90;;;;;;4984671;28;20065;-72
2022/03/05 03:53:51;;;;;;;18.10;9.80;;;-1.40;99.90;;;;;;4983499;28;20045;-72
2022/03/05 03:56:17;;;;;;;15.40;8.57;;;-1.40;99.90;;;;;;4980983;28;20045;-72
2022/03/05 03:58:43;;;;;;;16.38;8.77;;;-1.40;99.90;;;;;;4983720;28;20057;-72
2022/03/05 04:01:08;;;;;;;16.55;8.05;;;-1.40;99.90;;;;;;4997092;28;20601;-72
2022/03/05 04:03:34;;;;;;;15.50;8.25;;;-1.40;99.90;;;;;;4984747;28;20493;-72
2022/03/05 04:06:00;;;;;;;17.42;9.32;;;-1.40;99.90;;;;;;4986821;28;20133;-72
2022/03/05 04:08:44;;;;;;;15.75;8.55;;;-1.40;99.90;;;;;;4964500;28;20041;-72
2022/03/05 04:11:16;;;;;;;18.27;8.57;;;-1.40;99.90;;;;;;4986153;28;20133;-72
2022/03/05 04:13:43;;;;;;;16.67;8.67;;;-1.40;99.90;;;;;;4980905;28;20042;-71
2022/03/05 04:16:09;;;;;;;15.40;7.93;;;-1.40;99.90;;;;;;4984766;28;20304;-71
2022/03/05 04:18:35;;;;;;;20.05;8.93;;;-1.40;99.90;;;;;;5003644;28;20053;-71
2022/03/05 04:21:01;;;;;;;18.05;8.32;;;-1.30;99.90;;;;;;4999804;28;20053;-72
2022/03/05 04:23:27;;;;;;;15.52;7.85;;;-1.40;99.90;;;;;;4984716;28;20054;-72
2022/03/05 04:25:53;;;;;;;16.90;8.27;;;-1.30;99.90;;;;;;4976837;28;20154;-72
2022/03/05 04:28:19;;;;;;;17.13;7.93;;;-1.40;99.90;;;;;;4983346;28;20133;-72
2022/03/05 04:30:45;;;;;;;17.08;8.18;;;-1.30;99.90;;;;;;4983332;28;20066;-72
2022/03/05 04:33:11;;;;;;;17.85;8.60;;;-1.30;99.90;;;;;;4981058;28;20834;-72
2022/03/05 04:35:37;;;;;;;17.92;9.07;;;-1.30;99.90;;;;;;4980847;28;20141;-72
2022/03/05 04:38:03;;;;;;;17.48;8.52;;;-1.30;99.90;;;;;;4990936;28;20856;-71
2022/03/05 04:40:29;;;;;;;19.83;9.15;;;-1.40;99.90;;;;;;4977414;28;20042;-72
2022/03/05 04:42:55;;;;;;;15.20;7.60;;;-1.40;99.90;;;;;;4998626;28;20050;-71
2022/03/05 04:45:20;;;;;;;17.88;10.02;;;-1.40;99.90;;;;;;4982743;28;20061;-72
2022/03/05 04:47:46;;;;;;;17.02;9.05;;;-1.40;99.90;;;;;;4987400;28;20394;-72
2022/03/05 04:50:12;;;;;;;18.00;9.02;;;-1.40;99.90;;;;;;4986430;28;20056;-72
2022/03/05 04:52:38;;;;;;;19.27;8.52;;;-1.40;99.90;;;;;;4983166;28;20078;-71
2022/03/05 04:55:05;;;;;;;18.17;8.70;;;-1.40;99.90;;;;;;4981899;28;20092;-72
2022/03/05 04:57:31;;;;;;;16.65;9.23;;;-1.40;99.90;;;;;;4983200;28;20522;-72
2022/03/05 04:59:57;;;;;;;17.73;8.88;;;-1.40;99.90;;;;;;4995083;28;20042;-72
2022/03/05 05:02:23;;;;;;;16.52;8.90;;;-1.50;99.90;;;;;;4985468;28;20132;-72
2022/03/05 05:04:48;;;;;;;17.58;8.10;;;-1.50;99.90;;;;;;4980059;28;20049;-72
2022/03/05 05:07:15;;;;;;;18.10;9.98;;;-1.40;99.90;;;;;;4977552;28;20060;-71
2022/03/05 05:09:42;;;;;;;19.65;9.32;;;-1.40;99.90;;;;;;4981769;28;20049;-72
2022/03/05 05:12:08;;;;;;;14.57;8.63;;;-1.50;99.90;;;;;;5002397;28;20050;-72
2022/03/05 05:14:34;;;;;;;19.30;9.38;;;-1.50;99.90;;;;;;4990968;28;20486;-72
2022/03/05 05:17:00;;;;;;;17.83;9.13;;;-1.50;99.90;;;;;;4985371;28;20422;-72
2022/03/05 05:19:29;;;;;;;17.02;8.73;;;-1.50;99.90;;;;;;4987620;28;20034;-72
2022/03/05 05:21:57;;;;;;;16.23;8.15;;;-1.50;99.90;;;;;;4984947;28;20042;-72
2022/03/05 05:24:28;;;;;;;16.27;7.93;;;-1.50;99.90;;;;;;4989347;28;20138;-72
2022/03/05 05:26:55;;;;;;;20.85;9.18;;;-1.50;99.90;;;;;;4987615;28;20513;-72
2022/03/05 05:29:21;;;;;;;17.83;8.75;;;-1.60;99.90;;;;;;4989653;28;20068;-72
2022/03/05 05:31:47;;;;;;;17.83;9.52;;;-1.60;99.90;;;;;;4988257;28;20050;-72
2022/03/05 05:34:13;;;;;;;17.00;9.25;;;-1.60;99.90;;;;;;5002890;28;20096;-71
2022/03/05 05:36:39;;;;;;;17.20;8.85;;;-1.60;99.90;;;;;;4990355;28;20061;-72
2022/03/05 05:39:09;;;;;;;19.60;9.77;;;-1.60;99.90;;;;;;4986603;28;20042;-72
2022/03/05 05:41:35;;;;;;;17.35;9.38;;;-1.60;99.90;;;;;;4990687;28;20045;-72
2022/03/05 05:44:02;;;;;;;18.60;9.52;;;-1.60;99.90;;;;;;4982984;28;20104;-72
2022/03/05 05:46:28;;;;;;;18.42;9.20;;;-1.60;99.90;;;;;;4991378;28;20049;-71
2022/03/05 05:48:55;;;;;;;22.58;10.98;;;-1.60;99.90;;;;;;4987171;28;20057;-72
2022/03/05 05:51:21;;;;;;;18.67;9.98;;;-1.70;99.90;;;;;;4990075;28;20105;-72
2022/03/05 05:53:47;;;;;;;18.90;9.73;;;-1.70;99.90;;;;;;5003340;28;20050;-72
2022/03/05 05:56:12;;;;;;;18.23;8.95;;;-1.70;99.90;;;;;;4984488;28;20441;-72
2022/03/05 05:58:38;;;;;;;19.67;9.07;;;-1.70;99.90;;;;;;4998346;28;20128;-72
2022/03/05 06:01:04;;;;;;;16.58;8.75;;;-1.70;99.90;;;;;;5002290;28;20061;-72
2022/03/05 06:03:29;;;;;;;20.63;9.32;;;-1.80;99.90;;;;;;5006015;28;20037;-72
2022/03/05 06:05:58;;;;;;;14.90;9.07;;;-1.80;99.90;;;;;;4987281;28;20401;-72
2022/03/05 06:08:24;;;;;;;16.55;8.98;;;-1.80;99.90;;;;;;4990163;28;20636;-71
2022/03/05 06:10:51;;;;;;;18.75;9.50;;;-1.80;99.90;;;;;;4982461;28;20054;-72
2022/03/05 06:13:17;;;;;;;17.83;9.27;;;-1.80;99.90;;;;;;4984322;28;20038;-71
2022/03/05 06:15:44;;;;;;;18.40;9.48;;;-1.80;99.90;;;;;;4984631;28;20043;-71
2022/03/05 06:18:09;;;;;;;15.75;8.75;;;-1.80;99.90;;;;;;4981275;28;20134;-71
2022/03/05 06:20:35;;;;;;;17.95;9.18;;;-1.80;99.90;;;;;;4988627;28;20164;-71
2022/03/05 06:23:01;;;;;;;20.30;9.02;;;-1.80;99.90;;;;;;5001099;28;20505;-72
2022/03/05 06:25:27;;;;;;;17.52;9.32;;;-1.80;99.90;;;;;;4989174;28;20061;-72
2022/03/05 06:27:52;;;;;;;18.10;9.63;;;-1.80;99.90;;;;;;4985084;28;20528;-71
2022/03/05 06:30:18;;;;;;;15.77;8.45;;;-1.80;99.90;;;;;;4983852;28;20053;-71
2022/03/05 06:32:44;;;;;;;18.23;9.68;;;-1.80;99.90;;;;;;4989508;28;20042;-71
2022/03/05 06:35:10;;;;;;;17.50;9.90;;;-1.70;99.90;;;;;;5002416;28;20065;-71
2022/03/05 06:37:36;;;;;;;21.92;11.55;;;-1.70;99.90;;;;;;5002918;28;20559;-71
2022/03/05 06:40:03;;;;;;;21.45;11.80;;;-1.70;99.90;;;;;;4963241;28;20035;-71
2022/03/05 06:42:28;;;;;;;19.13;11.55;;;-1.70;99.90;;;;;;4990146;28;20050;-71
2022/03/05 06:44:54;;;;;;;18.38;9.60;;;-1.60;99.90;;;;;;4987446;28;20049;-71
2022/03/05 06:47:20;;;;;;;19.45;9.20;;;-1.60;99.90;;;;;;4988088;28;20042;-72
2022/03/05 06:49:45;;;;;;;17.80;9.20;;;-1.60;99.90;;;;;;5003707;28;20163;-71
2022/03/05 06:52:11;;;;;;;17.20;8.45;;;-1.60;99.90;;;;;;4988537;28;20038;-72
2022/03/05 06:54:37;;;;;;;20.48;10.15;;;-1.50;99.90;;;;;;5006362;28;20039;-72
2022/03/05 06:57:03;;;;;;;17.63;8.90;;;-1.50;99.90;;;;;;5001956;28;20611;-72
2022/03/05 06:59:29;;;;;;;13.82;7.90;;;-1.40;99.90;;;;;;4987589;28;20378;-73
2022/03/05 07:01:55;;;;;;;16.05;9.18;;;-1.40;99.90;;;;;;4998645;28;20140;-73
2022/03/05 07:04:21;;;;;;;18.65;9.23;;;-1.40;99.90;;;;;;5015114;28;20084;-71
2022/03/05 07:06:47;;;;;;;17.45;8.35;;;-1.40;99.90;;;;;;4994475;28;20081;-73
2022/03/05 07:09:14;;;;;;;16.88;8.77;;;-1.30;99.90;;;;;;4995918;28;20357;-72
2022/03/05 07:11:40;;;;;;;21.17;8.65;;;-1.20;99.90;;;;;;5007545;28;20140;-72
2022/03/05 07:14:06;;;;;;;16.23;8.90;;;-1.20;99.90;;;;;;4978943;28;20046;-73
2022/03/05 07:16:32;;;;;;;16.83;8.68;;;-1.20;99.90;;;;;;4985525;28;20085;-73
2022/03/05 07:18:58;;;;;;;14.77;8.00;;;-1.10;99.90;;;;;;4984341;28;20406;-72
2022/03/05 07:21:23;;;;;;;19.73;9.15;;;-1.10;99.90;;;;;;4996069;28;20031;-72
2022/03/05 07:23:49;;;;;;;17.15;8.82;;;-1.00;99.90;;;;;;4988187;28;20034;-72
2022/03/05 07:26:17;;;;;;;17.48;8.65;;;-0.90;99.90;;;;;;4983370;28;20066;-72
2022/03/05 07:28:43;;;;;;;17.40;9.25;;;-0.80;99.90;;;;;;4986515;28;20050;-73
2022/03/05 07:31:08;;;;;;;18.60;8.90;;;-0.70;99.90;;;;;;4985756;28;20498;-74
2022/03/05 07:33:34;;;;;;;15.32;8.95;;;-0.60;99.90;;;;;;5004872;28;20050;-72
2022/03/05 07:36:00;;;;;;;16.52;9.80;;;-0.50;99.90;;;;;;5002471;28;20034;-73
2022/03/05 07:38:26;;;;;;;16.52;8.80;;;-0.40;99.90;;;;;;4998216;28;20074;-73
2022/03/05 07:40:51;;;;;;;15.93;8.32;;;-0.30;99.90;;;;;;4998980;28;20094;-72
2022/03/05 07:43:17;;;;;;;17.00;8.88;;;-0.20;99.90;;;;;;5002532;28;20084;-72
2022/03/05 07:45:43;;;;;;;16.63;7.72;;;-0.20;99.90;;;;;;5000657;28;20031;-73
2022/03/05 07:48:08;;;;;;;15.15;8.40;;;-0.10;99.90;;;;;;4999133;28;22504;-73
2022/03/05 07:50:35;;;;;;;14.60;8.45;;;0.00;99.90;;;;;;4978165;28;20517;-72
2022/03/05 07:53:00;;;;;;;15.10;8.35;;;0.10;99.90;;;;;;4985993;28;20631;-72
2022/03/05 07:55:26;;;;;;;18.48;8.07;;;0.20;99.90;;;;;;4982284;28;20091;-73
2022/03/05 07:57:52;;;;;;;18.27;9.10;;;0.30;99.90;;;;;;4981100;28;20042;-73
2022/03/05 08:00:17;;;;;;;14.75;8.50;;;0.40;99.90;;;;;;4984617;28;20065;-73
2022/03/05 08:02:43;;;;;;;13.82;8.23;;;0.40;99.90;;;;;;4983509;28;20441;-73
2022/03/05 08:05:12;;;;;;;14.02;8.73;;;0.50;99.90;;;;;;4983613;28;20048;-73
2022/03/05 08:07:37;;;;;;;15.55;9.45;;;0.60;99.90;;;;;;4985121;28;20050;-73
2022/03/05 08:10:07;;;;;;;16.23;9.57;;;0.70;99.90;;;;;;4979825;28;20042;-72
2022/03/05 08:12:33;;;;;;;14.98;8.10;;;0.70;99.90;;;;;;4996131;28;20047;-73
2022/03/05 08:14:59;;;;;;;20.55;9.32;;;0.80;99.90;;;;;;4981277;28;20046;-73
2022/03/05 08:17:25;;;;;;;16.75;8.63;;;0.90;99.90;;;;;;4982187;28;20390;-71
2022/03/05 08:19:51;;;;;;;16.08;8.63;;;1.00;99.90;;;;;;4979051;28;20046;-73
2022/03/05 08:22:16;;;;;;;15.18;8.35;;;1.00;99.90;;;;;;5001592;28;20089;-73
2022/03/05 08:24:42;;;;;;;15.25;9.25;;;1.10;99.90;;;;;;4983867;28;20142;-73
2022/03/05 08:27:08;;;;;;;17.65;8.70;;;1.20;99.90;;;;;;4983988;28;20445;-72
2022/03/05 08:29:37;;;;;;;18.27;9.90;;;1.20;99.90;;;;;;4987438;28;20998;-72
2022/03/05 08:32:03;;;;;;;19.90;9.85;;;1.30;99.90;;;;;;4981169;28;20065;-72
2022/03/05 08:34:29;;;;;;;19.23;9.27;;;1.40;99.90;;;;;;4979320;28;20050;-72
2022/03/05 08:36:54;;;;;;;16.52;8.95;;;1.50;99.90;;;;;;4971380;28;20461;-73
2022/03/05 08:39:20;;;;;;;15.63;9.13;;;1.50;99.90;;;;;;4984536;28;20061;-73
2022/03/05 08:41:47;;;;;;;18.52;9.63;;;1.60;99.90;;;;;;4987275;28;20124;-73
2022/03/05 08:44:13;;;;;;;17.50;9.75;;;1.70;99.90;;;;;;4981290;28;20518;-73
2022/03/05 08:46:39;;;;;;;19.70;10.20;;;1.70;99.90;;;;;;4985678;28;20108;-72
2022/03/05 08:49:05;;;;;;;19.50;10.30;;;1.80;99.90;;;;;;4983365;28;20042;-72
2022/03/05 08:51:31;;;;;;;21.98;10.60;;;1.80;99.90;;;;;;4989827;28;20049;-71
2022/03/05 08:53:56;;;;;;;20.67;10.00;;;1.90;99.90;;;;;;4985060;28;20091;-72
2022/03/05 08:56:23;;;;;;;16.23;9.57;;;2.00;99.90;;;;;;4999400;28;20038;-71
2022/03/05 08:58:49;;;;;;;21.63;10.60;;;2.00;99.90;;;;;;4985117;28;20049;-71
2022/03/05 09:01:15;;;;;;;20.13;9.30;;;2.00;99.90;;;;;;4984907;28;20125;-71
2022/03/05 09:03:41;;;;;;;22.65;10.75;;;2.00;99.90;;;;;;5004178;28;20456;-69
2022/03/05 09:06:07;;;;;;;20.13;10.73;;;2.10;99.90;;;;;;5001402;28;20052;-69
2022/03/05 09:08:33;;;;;;;19.17;11.02;;;2.10;99.90;;;;;;4981282;28;20046;-67
2022/03/05 09:10:59;;;;;;;19.85;9.88;;;2.20;99.90;;;;;;4976921;28;20050;-68
2022/03/05 09:13:24;;;;;;;21.90;9.68;;;2.20;99.90;;;;;;4981732;28;20046;-72
2022/03/05 09:15:50;;;;;;;19.52;10.70;;;2.20;99.90;;;;;;4983054;28;20405;-71
2022/03/05 09:18:15;;;;;;;18.45;10.25;;;2.20;99.90;;;;;;4982675;28;20061;-71
2022/03/05 09:20:46;;;;;;;19.85;11.20;;;2.30;99.90;;;;;;4983606;28;20058;-71
2022/03/05 09:23:12;;;;;;;20.55;10.63;;;2.30;99.90;;;;;;4981838;28;20042;-70
2022/03/05 09:25:37;;;;;;;22.35;11.30;;;2.40;99.90;;;;;;4982791;28;20058;-71
2022/03/05 09:28:03;;;;;;;21.60;10.15;;;2.40;99.90;;;;;;4978454;28;20054;-71
2022/03/05 09:30:29;;;;;;;22.05;11.63;;;2.40;99.90;;;;;;4984681;28;20049;-71
2022/03/05 09:32:55;;;;;;;17.73;10.63;;;2.50;99.90;;;;;;4982134;28;20078;-72
2022/03/05 09:35:20;;;;;;;22.63;10.43;;;2.60;99.90;;;;;;4979804;28;20050;-71
2022/03/05 09:37:46;;;;;;;20.45;9.75;;;2.70;99.90;;;;;;4985443;28;20046;-72
2022/03/05 09:40:12;;;;;;;19.50;10.75;;;2.80;99.90;;;;;;4982342;28;20201;-71
2022/03/05 09:42:45;;;;;;;21.15;10.13;;;2.80;99.90;;;;;;4982585;28;20486;-71
2022/03/05 09:45:12;;;;;;;21.05;11.30;;;2.90;99.90;;;;;;4981847;28;20108;-76
2022/03/05 09:47:39;;;;;;;24.77;11.30;;;2.90;99.90;;;;;;4981351;28;20074;-71
2022/03/05 09:50:06;;;;;;;21.10;11.32;;;2.90;99.90;;;;;;4981721;28;20054;-71
2022/03/05 09:52:32;;;;;;;20.42;10.82;;;3.00;99.90;;;;;;4978634;28;20434;-70
2022/03/05 09:54:58;;;;;;;22.15;11.93;;;3.10;99.90;;;;;;4979002;28;20054;-69
2022/03/05 09:57:24;;;;;;;20.63;10.98;;;3.20;99.90;;;;;;4980348;28;20046;-70
2022/03/05 09:59:49;;;;;;;19.58;11.32;;;3.20;99.90;;;;;;4983144;28;20050;-68
2022/03/05 10:02:17;;;;;;;23.25;12.00;;;3.30;99.90;;;;;;4987948;28;20575;-70
2022/03/05 10:04:43;;;;;;;22.92;11.25;;;3.40;99.90;;;;;;4984089;28;20042;-70
2022/03/05 10:07:16;;;;;;;22.45;11.27;;;3.40;99.90;;;;;;4980399;28;20182;-70
2022/03/05 10:09:44;;;;;;;23.65;11.93;;;3.50;99.90;;;;;;4983603;28;20049;-69
2022/03/05 10:12:29;;;;;;;24.10;11.32;;;3.60;99.90;;;;;;4986581;28;20054;-70
2022/03/05 10:15:06;;;;;;;24.25;12.00;;;3.70;99.90;;;;;;4987021;28;20112;-70
2022/03/05 10:17:52;;;;;;;23.55;12.07;;;3.70;99.90;;;;;;4982080;28;20136;-69
2022/03/05 10:20:23;;;;;;;21.45;11.00;;;3.70;99.90;;;;;;4989007;28;20409;-69
2022/03/05 10:22:58;;;;;;;23.73;11.93;;;3.70;99.90;;;;;;4983280;28;20054;-70
2022/03/05 10:25:39;;;;;;;21.48;12.43;;;3.80;99.90;;;;;;4983163;28;20042;-70
2022/03/05 10:28:08;;;;;;;25.58;12.15;;;3.80;99.90;;;;;;4982300;28;20613;-69
2022/03/05 10:30:37;;;;;;;27.52;13.38;;;3.90;99.90;;;;;;4983834;28;20086;-70
2022/03/05 10:33:03;;;;;;;25.75;12.60;;;4.00;99.90;;;;;;4983403;28;20116;-69
2022/03/05 10:35:29;;;;;;;25.35;13.98;;;4.00;99.90;;;;;;4987834;28;20072;-69
2022/03/05 10:37:55;;;;;;;24.25;12.00;;;4.10;99.90;;;;;;4979587;28;20069;-69
2022/03/05 10:40:27;;;;;;;23.27;12.75;;;4.10;99.90;;;;;;4985049;28;20513;-69
2022/03/05 10:42:53;;;;;;;21.85;11.63;;;4.10;99.90;;;;;;4982686;28;20057;-70
2022/03/05 10:45:19;;;;;;;24.30;11.82;;;4.20;99.90;;;;;;4986182;28;20042;-71
2022/03/05 10:47:46;;;;;;;25.85;12.75;;;4.30;99.90;;;;;;4982667;28;20042;-71
2022/03/05 10:50:21;;;;;;;23.88;12.48;;;4.30;99.90;;;;;;4984624;28;20533;-71
2022/03/05 10:52:52;;;;;;;20.65;11.75;;;4.30;99.90;;;;;;4984542;28;20062;-72
2022/03/05 10:55:24;;;;;;;21.50;12.38;;;4.30;99.90;;;;;;4981183;28;20046;-72
2022/03/05 10:58:03;;;;;;;25.15;13.07;;;4.40;99.90;;;;;;4981747;28;20406;-71
2022/03/05 11:00:30;;;;;;;24.80;13.30;;;4.40;99.90;;;;;;4983377;28;20109;-72
2022/03/05 11:02:58;;;;;;;28.02;14.23;;;4.50;99.90;;;;;;4988384;28;20046;-72
2022/03/05 11:05:24;;;;;;;24.13;13.23;;;4.60;99.90;;;;;;4979992;28;20619;-72
2022/03/05 11:07:52;;;;;;;28.05;12.45;;;4.60;99.90;;;;;;4977831;28;20591;-71
2022/03/05 11:10:18;;;;;;;24.60;12.43;;;4.60;99.90;;;;;;4982814;28;20050;-71
2022/03/05 11:12:51;;;;;;;23.83;13.20;;;4.60;99.90;;;;;;4984168;28;20034;-71
2022/03/05 11:15:18;;;;;;;27.00;13.98;;;4.70;99.90;;;;;;4983861;28;20050;-71
2022/03/05 11:17:48;;;;;;;25.23;14.07;;;4.80;99.90;;;;;;4985916;28;21795;-70
2022/03/05 11:20:14;;;;;;;28.13;14.00;;;4.90;99.90;;;;;;4985502;28;20057;-71
2022/03/05 11:22:44;;;;;;;27.60;14.02;;;4.90;99.90;;;;;;5000844;28;20065;-71
2022/03/05 11:25:15;;;;;;;21.27;12.77;;;4.90;99.90;;;;;;4984709;28;20557;-71
2022/03/05 11:28:01;;;;;;;25.50;12.52;;;4.90;99.90;;;;;;4984529;28;20034;-71
2022/03/05 11:30:28;;;;;;;26.48;13.80;;;5.00;99.90;;;;;;4981462;28;20538;-71
2022/03/05 11:32:54;;;;;;;25.70;13.60;;;5.10;99.90;;;;;;5001908;28;20120;-71
2022/03/05 11:35:25;;;;;;;25.67;13.50;;;5.20;99.90;;;;;;4984308;28;20577;-72
2022/03/05 11:37:52;;;;;;;20.60;11.98;;;5.20;99.90;;;;;;4982829;28;20056;-71
2022/03/05 11:40:39;;;;;;;23.77;12.95;;;5.20;99.90;;;;;;4983473;28;20062;-72
2022/03/05 11:43:19;;;;;;;24.23;13.70;;;5.20;99.90;;;;;;4987965;28;20050;-71
2022/03/05 11:46:05;;;;;;;24.23;12.88;;;5.20;99.90;;;;;;4985060;28;20115;-71
2022/03/05 11:48:33;;;;;;;22.98;12.27;;;5.30;99.90;;;;;;5003438;28;20050;-71
2022/03/05 11:51:12;;;;;;;24.73;12.30;;;5.40;99.90;;;;;;4986626;28;20046;-71
2022/03/05 11:53:39;;;;;;;26.35;13.43;;;5.40;99.90;;;;;;4983182;28;20536;-71
2022/03/05 11:56:23;;;;;;;24.40;12.50;;;5.50;99.90;;;;;;4984496;28;20042;-72
2022/03/05 11:58:48;;;;;;;20.08;11.02;;;5.50;99.90;;;;;;4984796;28;20498;-72
2022/03/05 12:01:38;;;;;;;27.38;13.40;;;5.40;99.90;;;;;;4985067;28;20053;-70
2022/03/05 12:04:19;;;;;;;24.27;12.52;;;5.40;99.90;;;;;;4982603;28;20077;-72
2022/03/05 12:06:47;;;;;;;25.13;12.23;;;5.40;99.90;;;;;;4982316;28;20081;-71
2022/03/05 12:09:41;;;;;;;24.20;13.32;;;5.40;99.90;;;;;;5003734;28;20034;-70
2022/03/05 12:12:09;;;;;;;22.83;11.35;;;5.40;99.90;;;;;;5001597;28;20056;-69
2022/03/05 12:14:58;;;;;;;22.38;11.95;;;5.50;99.90;;;;;;4987794;28;20112;-71
2022/03/05 12:17:36;;;;;;;21.55;12.10;;;5.50;99.90;;;;;;4994647;28;20644;-71
2022/03/05 12:20:06;;;;;;;23.83;12.90;;;5.60;99.90;;;;;;4982131;28;20429;-71
2022/03/05 12:22:32;;;;;;;23.35;12.80;;;5.60;99.90;;;;;;5004963;28;20565;-71
2022/03/05 12:24:58;;;;;;;24.25;13.05;;;5.60;99.90;;;;;;5008672;28;20184;-71
2022/03/05 12:27:28;;;;;;;24.67;12.98;;;5.60;99.90;;;;;;4987980;28;20498;-70
2022/03/05 12:29:55;;;;;;;22.80;12.43;;;5.70;99.90;;;;;;4988419;28;20041;-71
2022/03/05 12:32:30;;;;;;;26.42;12.88;;;5.70;99.90;;;;;;4981408;28;20519;-70
2022/03/05 12:35:08;;;;;;;24.58;13.77;;;5.70;99.90;;;;;;4989150;28;20035;-69
2022/03/05 12:37:34;;;;;;;29.83;13.95;;;5.80;99.90;;;;;;4984181;28;20050;-69